Time;durP1;ratioP1;P1;durP2;ratioP2;P2;SDS_P1;SDS_P2;PMS_P1;PMS_P2;Temp;Humidity;BMP_temperature;BMP_pressure;BME280_temperature;BME280_humidity;BME280_pressure;Samples;Min_cycle;Max_cycle;Signal;HPM_P1;HPM_P2
2023/09/24 00:00:56;;;;;;;6.75;3.35;;;11.10;99.90;;;;;;7374715;19;20022;-70
2023/09/24 00:03:24;;;;;;;10.15;4.70;;;11.10;99.90;;;;;;7370812;19;20600;-70
2023/09/24 00:05:54;;;;;;;7.45;4.93;;;11.10;99.90;;;;;;7368964;19;20015;-70
2023/09/24 00:08:21;;;;;;;9.85;5.57;;;11.20;99.90;;;;;;7377798;19;20026;-72
2023/09/24 00:10:52;;;;;;;9.35;6.35;;;11.20;99.90;;;;;;7365841;19;20078;-72
2023/09/24 00:13:21;;;;;;;12.60;6.70;;;11.20;99.90;;;;;;7372632;19;20505;-71
2023/09/24 00:15:47;;;;;;;12.25;6.78;;;11.20;99.90;;;;;;7371006;19;20270;-71
2023/09/24 00:18:14;;;;;;;8.88;6.63;;;11.20;99.90;;;;;;7375652;19;20437;-72
2023/09/24 00:20:40;;;;;;;10.18;5.68;;;11.20;99.90;;;;;;7368979;19;20838;-72
2023/09/24 00:23:07;;;;;;;9.25;6.50;;;11.20;99.90;;;;;;7370108;19;20019;-71
2023/09/24 00:25:33;;;;;;;11.23;6.90;;;11.20;99.90;;;;;;7372160;19;20022;-71
2023/09/24 00:28:00;;;;;;;10.70;7.13;;;11.20;99.90;;;;;;7373321;19;20026;-71
2023/09/24 00:30:26;;;;;;;8.02;6.75;;;11.20;99.90;;;;;;7369524;19;20018;-71
2023/09/24 00:32:55;;;;;;;9.02;6.93;;;11.10;99.90;;;;;;7369672;19;20014;-72
2023/09/24 00:35:22;;;;;;;14.73;8.23;;;11.10;99.90;;;;;;7370465;19;20424;-72
2023/09/24 00:38:08;;;;;;;12.45;7.47;;;11.10;99.90;;;;;;7368357;19;20359;-72
2023/09/24 00:40:35;;;;;;;15.68;8.02;;;11.10;99.90;;;;;;7367602;19;20033;-70
2023/09/24 00:43:01;;;;;;;13.15;8.50;;;11.10;99.90;;;;;;7369460;19;20022;-71
2023/09/24 00:45:28;;;;;;;13.68;7.47;;;11.10;99.90;;;;;;7370675;19;20035;-63
2023/09/24 00:47:57;;;;;;;13.65;6.88;;;11.00;99.90;;;;;;7366713;19;20480;-60
2023/09/24 00:50:33;;;;;;;8.80;6.88;;;11.00;99.90;;;;;;7369460;19;20024;-61
2023/09/24 00:53:02;;;;;;;8.93;6.07;;;11.00;99.90;;;;;;7366991;19;20230;-60
2023/09/24 00:55:31;;;;;;;11.38;6.47;;;10.90;99.90;;;;;;7366433;19;20038;-61
2023/09/24 00:57:57;;;;;;;10.02;6.68;;;10.90;99.90;;;;;;7372088;19;20019;-61
2023/09/24 01:00:25;;;;;;;19.23;7.93;;;10.90;99.90;;;;;;7366729;19;20026;-60
2023/09/24 01:02:51;;;;;;;21.85;7.43;;;10.90;99.90;;;;;;7364392;19;20354;-60
2023/09/24 01:05:18;;;;;;;14.48;6.03;;;10.90;99.90;;;;;;7370705;19;20074;-61
2023/09/24 01:07:45;;;;;;;21.02;6.40;;;10.90;99.90;;;;;;7366065;19;20026;-61
2023/09/24 01:10:11;;;;;;;13.30;7.03;;;10.90;99.90;;;;;;7370369;19;20025;-61
2023/09/24 01:12:41;;;;;;;13.65;7.55;;;11.00;99.90;;;;;;7367334;19;20574;-61
2023/09/24 01:15:14;;;;;;;13.80;6.82;;;11.00;99.90;;;;;;7370405;19;20494;-61
2023/09/24 01:17:40;;;;;;;11.75;8.18;;;11.00;99.90;;;;;;7365709;19;20485;-61
2023/09/24 01:20:12;;;;;;;12.05;8.63;;;11.00;99.90;;;;;;7369014;19;20022;-61
2023/09/24 01:22:39;;;;;;;12.02;8.93;;;11.00;99.90;;;;;;7366965;19;20407;-60
2023/09/24 01:25:06;;;;;;;17.30;9.43;;;11.00;99.90;;;;;;7368842;19;20031;-60
2023/09/24 01:27:35;;;;;;;12.65;9.07;;;11.00;99.90;;;;;;7367493;19;20018;-61
2023/09/24 01:30:22;;;;;;;15.25;9.63;;;11.00;99.90;;;;;;7369732;19;20019;-61
2023/09/24 01:33:08;;;;;;;12.77;8.40;;;11.00;99.90;;;;;;7369076;19;20105;-61
2023/09/24 01:35:36;;;;;;;33.08;10.93;;;10.90;99.90;;;;;;7365131;19;20040;-61
2023/09/24 01:38:06;;;;;;;35.88;10.30;;;10.90;99.90;;;;;;7369185;19;20022;-61
2023/09/24 01:40:35;;;;;;;120.25;16.55;;;10.90;99.90;;;;;;7365617;19;20030;-61
2023/09/24 01:43:08;;;;;;;82.47;16.98;;;10.90;99.90;;;;;;7369754;19;20109;-61
2023/09/24 01:45:38;;;;;;;28.88;11.63;;;10.90;99.90;;;;;;7369733;19;20027;-61
2023/09/24 01:48:05;;;;;;;40.28;13.23;;;10.90;99.90;;;;;;7368288;19;20086;-61
2023/09/24 01:50:33;;;;;;;17.80;10.02;;;10.80;99.90;;;;;;7367740;19;20019;-61
2023/09/24 01:53:00;;;;;;;16.40;10.73;;;10.80;99.90;;;;;;7369077;19;20482;-61
2023/09/24 01:55:27;;;;;;;23.33;12.23;;;10.70;99.90;;;;;;7367161;19;20019;-60
2023/09/24 01:57:54;;;;;;;12.57;10.23;;;10.70;99.90;;;;;;7365725;19;20025;-61
2023/09/24 02:00:25;;;;;;;21.63;10.70;;;10.70;99.90;;;;;;7366891;19;20026;-61
2023/09/24 02:02:52;;;;;;;43.30;13.20;;;10.60;99.90;;;;;;7365312;19;20019;-61
2023/09/24 02:05:20;;;;;;;17.00;11.35;;;10.60;99.90;;;;;;7369157;19;20019;-61
2023/09/24 02:07:49;;;;;;;16.95;11.55;;;10.60;99.90;;;;;;7367362;19;20527;-62
2023/09/24 02:10:19;;;;;;;22.85;11.18;;;10.60;99.90;;;;;;7367260;19;20010;-62
2023/09/24 02:12:46;;;;;;;24.52;12.40;;;10.60;99.90;;;;;;7368173;19;20024;-60
2023/09/24 02:15:14;;;;;;;44.20;13.32;;;10.60;99.90;;;;;;7368891;19;20936;-60
2023/09/24 02:17:41;;;;;;;30.65;11.30;;;10.50;99.90;;;;;;7361569;19;20465;-61
2023/09/24 02:20:22;;;;;;;44.60;11.65;;;10.50;99.90;;;;;;7368877;19;20375;-61
2023/09/24 02:22:50;;;;;;;91.53;14.10;;;10.50;99.90;;;;;;7372711;19;20018;-60
2023/09/24 02:25:18;;;;;;;40.80;11.35;;;10.50;99.90;;;;;;7375624;19;20090;-61
2023/09/24 02:27:48;;;;;;;84.47;12.77;;;10.50;99.90;;;;;;7375080;19;20089;-60
2023/09/24 02:30:19;;;;;;;74.20;12.23;;;10.50;99.90;;;;;;7375369;19;20062;-61
2023/09/24 02:32:46;;;;;;;111.53;17.27;;;10.50;99.90;;;;;;7372008;19;20090;-61
2023/09/24 02:35:16;;;;;;;108.53;15.88;;;10.50;99.90;;;;;;7373260;19;20031;-61
2023/09/24 02:37:50;;;;;;;129.55;17.60;;;10.40;99.90;;;;;;7370842;19;20023;-60
2023/09/24 02:40:21;;;;;;;61.03;13.15;;;10.30;99.90;;;;;;7375571;19;20014;-61
2023/09/24 02:42:49;;;;;;;69.10;15.80;;;10.40;99.90;;;;;;7366589;19;20377;-61
2023/09/24 02:45:16;;;;;;;42.38;10.95;;;10.40;99.90;;;;;;7374175;19;20024;-61
2023/09/24 02:47:43;;;;;;;50.67;11.52;;;10.30;99.90;;;;;;7375283;19;20018;-61
2023/09/24 02:50:13;;;;;;;44.88;13.88;;;10.30;99.90;;;;;;7375190;19;20615;-60
2023/09/24 02:52:43;;;;;;;20.55;10.52;;;10.20;99.90;;;;;;7371287;19;20018;-61
2023/09/24 02:55:12;;;;;;;27.27;12.00;;;10.20;99.90;;;;;;7372049;19;20504;-61
2023/09/24 02:57:43;;;;;;;15.73;10.10;;;10.10;99.90;;;;;;7363915;19;20389;-61
2023/09/24 03:00:18;;;;;;;17.55;10.55;;;10.10;99.90;;;;;;7371042;19;20018;-61
2023/09/24 03:02:48;;;;;;;22.08;11.43;;;10.00;99.90;;;;;;7369892;19;20014;-61
2023/09/24 03:05:20;;;;;;;19.25;11.48;;;10.00;99.90;;;;;;7369985;19;20014;-60
2023/09/24 03:07:50;;;;;;;17.80;11.27;;;10.00;99.90;;;;;;7370372;19;20015;-61
2023/09/24 03:10:18;;;;;;;12.80;9.60;;;9.90;99.90;;;;;;7368023;19;20775;-61
2023/09/24 03:12:46;;;;;;;11.10;8.88;;;9.90;99.90;;;;;;7367843;19;20030;-60
2023/09/24 03:15:13;;;;;;;19.35;10.50;;;9.90;99.90;;;;;;7370261;19;20018;-61
2023/09/24 03:17:41;;;;;;;12.80;9.63;;;9.90;99.90;;;;;;7371339;19;20022;-61
2023/09/24 03:20:16;;;;;;;16.95;11.80;;;9.80;99.90;;;;;;7367729;19;20485;-62
2023/09/24 03:22:49;;;;;;;17.02;10.30;;;9.90;99.90;;;;;;7368247;19;20019;-61
2023/09/24 03:25:23;;;;;;;16.38;11.20;;;9.80;99.90;;;;;;7365606;19;20753;-61
2023/09/24 03:27:52;;;;;;;15.60;10.20;;;9.70;99.90;;;;;;7371709;19;20310;-61
2023/09/24 03:30:20;;;;;;;17.95;10.02;;;9.70;99.90;;;;;;7367645;19;20392;-61
2023/09/24 03:32:48;;;;;;;13.55;10.27;;;9.70;99.90;;;;;;7374871;19;20027;-61
2023/09/24 03:35:19;;;;;;;13.90;10.32;;;9.60;99.90;;;;;;7366706;19;20349;-61
2023/09/24 03:37:47;;;;;;;15.18;9.55;;;9.60;99.90;;;;;;7369410;19;20041;-61
2023/09/24 03:40:19;;;;;;;13.05;9.40;;;9.60;99.90;;;;;;7368110;19;20339;-61
2023/09/24 03:42:47;;;;;;;11.20;9.45;;;9.60;99.90;;;;;;7365774;19;20848;-60
2023/09/24 03:45:16;;;;;;;17.80;9.32;;;9.50;99.90;;;;;;7366794;19;20019;-60
2023/09/24 03:47:42;;;;;;;13.13;9.63;;;9.50;99.90;;;;;;7367160;19;20084;-60
2023/09/24 03:50:32;;;;;;;13.65;9.93;;;9.50;99.90;;;;;;7371981;19;20029;-61
2023/09/24 03:52:59;;;;;;;14.38;10.00;;;9.50;99.90;;;;;;7366720;19;20026;-62
2023/09/24 03:55:27;;;;;;;11.80;8.25;;;9.50;99.90;;;;;;7370307;19;20018;-60
2023/09/24 03:57:54;;;;;;;13.70;9.45;;;9.40;99.90;;;;;;7365792;19;20112;-60
2023/09/24 04:00:21;;;;;;;12.55;10.50;;;9.40;99.90;;;;;;7369009;19;20043;-61
2023/09/24 04:02:48;;;;;;;16.65;10.68;;;9.40;99.90;;;;;;7367314;19;20007;-61
2023/09/24 04:05:18;;;;;;;13.05;9.38;;;9.30;99.90;;;;;;7372273;19;20041;-61
2023/09/24 04:07:46;;;;;;;14.77;10.20;;;9.30;99.90;;;;;;7362167;19;20023;-61
2023/09/24 04:10:14;;;;;;;13.48;10.43;;;9.30;99.90;;;;;;7367244;19;20014;-61
2023/09/24 04:12:46;;;;;;;16.00;9.90;;;9.30;99.90;;;;;;7367382;19;20023;-61
2023/09/24 04:15:14;;;;;;;16.90;10.95;;;9.20;99.90;;;;;;7367580;19;20073;-61
2023/09/24 04:17:41;;;;;;;12.40;9.68;;;9.20;99.90;;;;;;7364664;19;20017;-61
2023/09/24 04:20:08;;;;;;;13.10;9.45;;;9.20;99.90;;;;;;7365699;19;20074;-60
2023/09/24 04:22:34;;;;;;;14.20;10.05;;;9.20;99.90;;;;;;7366375;19;20022;-61
2023/09/24 04:25:01;;;;;;;17.45;11.23;;;9.20;99.90;;;;;;7366966;19;20442;-60
2023/09/24 04:27:27;;;;;;;14.85;10.60;;;9.10;99.90;;;;;;7365655;19;20424;-60
2023/09/24 04:29:53;;;;;;;14.13;10.77;;;9.10;99.90;;;;;;7365980;19;20014;-60
2023/09/24 04:32:20;;;;;;;14.93;10.10;;;9.10;99.90;;;;;;7367191;19;20313;-60
2023/09/24 04:34:46;;;;;;;14.27;10.93;;;9.10;99.90;;;;;;7366105;19;20021;-61
2023/09/24 04:37:15;;;;;;;19.83;10.93;;;9.00;99.90;;;;;;7372010;19;20022;-60
2023/09/24 04:39:43;;;;;;;17.23;10.80;;;9.00;99.90;;;;;;7368300;19;20400;-61
2023/09/24 04:42:11;;;;;;;15.05;10.90;;;9.10;99.90;;;;;;7368646;19;20577;-60
2023/09/24 04:44:41;;;;;;;17.85;12.75;;;9.00;99.90;;;;;;7364956;19;20021;-61
2023/09/24 04:47:08;;;;;;;19.40;13.30;;;9.00;99.90;;;;;;7369111;19;20024;-60
2023/09/24 04:49:34;;;;;;;18.60;12.68;;;9.10;99.90;;;;;;7363169;19;20493;-61
2023/09/24 04:52:01;;;;;;;20.52;11.57;;;9.00;99.90;;;;;;7368318;19;20019;-60
2023/09/24 04:54:28;;;;;;;19.42;12.80;;;9.00;99.90;;;;;;7364606;19;20029;-60
2023/09/24 04:56:54;;;;;;;19.83;12.50;;;9.00;99.90;;;;;;7364635;19;20018;-60
2023/09/24 04:59:20;;;;;;;17.02;12.35;;;9.00;99.90;;;;;;7369462;19;20583;-61
2023/09/24 05:01:46;;;;;;;20.75;14.27;;;9.00;99.90;;;;;;7361989;19;20022;-61
2023/09/24 05:04:32;;;;;;;17.33;12.98;;;9.00;99.90;;;;;;7363680;19;20039;-62
2023/09/24 05:06:59;;;;;;;18.65;12.25;;;9.00;99.90;;;;;;7360763;19;20026;-61
2023/09/24 05:09:45;;;;;;;16.38;13.00;;;9.00;99.90;;;;;;7360414;19;20484;-61
2023/09/24 05:12:13;;;;;;;21.27;13.20;;;9.00;99.90;;;;;;7368040;19;20035;-62
2023/09/24 05:14:39;;;;;;;17.30;12.50;;;9.00;99.90;;;;;;7365149;19;20733;-60
2023/09/24 05:17:05;;;;;;;22.15;14.05;;;8.90;99.90;;;;;;7366321;19;20739;-61
2023/09/24 05:19:51;;;;;;;18.80;12.30;;;8.80;99.90;;;;;;7364410;19;20787;-61
2023/09/24 05:22:18;;;;;;;17.55;12.65;;;8.90;99.90;;;;;;7364324;19;20019;-60
2023/09/24 05:24:44;;;;;;;19.23;13.13;;;8.90;99.90;;;;;;7366974;19;20023;-60
2023/09/24 05:27:10;;;;;;;22.55;13.07;;;8.90;99.90;;;;;;7364956;19;20019;-60
2023/09/24 05:29:36;;;;;;;24.02;14.25;;;8.90;99.90;;;;;;7366504;19;20629;-61
2023/09/24 05:32:03;;;;;;;26.40;16.27;;;8.80;99.90;;;;;;7366772;19;20022;-60
2023/09/24 05:34:32;;;;;;;21.83;14.30;;;8.90;99.90;;;;;;7370430;19;20464;-60
2023/09/24 05:36:58;;;;;;;22.50;16.27;;;8.90;99.90;;;;;;7364539;19;20045;-61
2023/09/24 05:39:24;;;;;;;18.52;13.38;;;8.90;99.90;;;;;;7364075;19;20027;-60
2023/09/24 05:41:51;;;;;;;25.73;14.80;;;8.90;99.90;;;;;;7357991;19;20585;-60
2023/09/24 05:44:37;;;;;;;21.17;14.63;;;9.00;99.90;;;;;;7355246;19;20414;-61
2023/09/24 05:47:07;;;;;;;20.00;14.55;;;9.00;99.90;;;;;;7358957;19;20779;-60
2023/09/24 05:49:33;;;;;;;23.27;15.02;;;9.00;99.90;;;;;;7355076;19;20022;-61
2023/09/24 05:51:59;;;;;;;20.73;14.13;;;9.00;99.90;;;;;;7365798;19;20493;-61
2023/09/24 05:54:26;;;;;;;23.05;14.52;;;9.10;99.90;;;;;;7360234;19;20014;-60
2023/09/24 05:56:52;;;;;;;27.45;16.30;;;9.20;99.90;;;;;;7372343;19;20019;-61
2023/09/24 05:59:21;;;;;;;23.27;15.52;;;9.20;99.90;;;;;;7369614;19;20586;-71
2023/09/24 06:01:47;;;;;;;21.00;15.35;;;9.20;99.90;;;;;;7368571;19;20022;-71
2023/09/24 06:04:13;;;;;;;20.80;14.73;;;9.20;99.90;;;;;;7372245;19;20041;-73
2023/09/24 06:06:41;;;;;;;23.73;16.00;;;9.30;99.90;;;;;;7369928;19;20019;-70
2023/09/24 06:09:09;;;;;;;24.30;16.23;;;9.30;99.90;;;;;;7376628;19;20025;-72
2023/09/24 06:11:38;;;;;;;25.25;15.80;;;9.40;99.90;;;;;;7370521;19;20489;-71
2023/09/24 06:14:08;;;;;;;25.80;15.98;;;9.50;99.90;;;;;;7374393;19;20357;-72
2023/09/24 06:16:38;;;;;;;26.17;16.50;;;9.50;99.90;;;;;;7375406;19;20493;-62
2023/09/24 06:19:04;;;;;;;24.15;16.35;;;9.60;99.90;;;;;;7371538;19;20029;-61
2023/09/24 06:21:31;;;;;;;25.95;16.02;;;9.70;99.90;;;;;;7371130;19;20358;-72
2023/09/24 06:23:57;;;;;;;22.10;16.67;;;9.80;99.90;;;;;;7374627;19;20434;-71
2023/09/24 06:26:24;;;;;;;23.60;16.92;;;9.80;99.90;;;;;;7371947;19;20351;-72
2023/09/24 06:28:50;;;;;;;27.05;17.65;;;9.90;99.90;;;;;;7371122;19;20029;-70
2023/09/24 06:31:17;;;;;;;29.35;16.48;;;10.00;99.90;;;;;;7374615;19;20014;-71
2023/09/24 06:33:43;;;;;;;26.73;15.77;;;10.10;99.90;;;;;;7372663;19;20513;-72
2023/09/24 06:36:09;;;;;;;29.58;17.52;;;10.20;99.90;;;;;;7375428;19;20021;-72
2023/09/24 06:38:36;;;;;;;22.48;15.75;;;10.30;99.90;;;;;;7372827;19;20480;-72
2023/09/24 06:41:03;;;;;;;26.48;17.45;;;10.40;99.90;;;;;;7367239;19;20047;-72
2023/09/24 06:43:33;;;;;;;25.73;20.05;;;10.60;99.90;;;;;;7372878;19;20022;-66
2023/09/24 06:46:04;;;;;;;29.13;17.10;;;10.70;99.90;;;;;;7369162;19;20030;-73
2023/09/24 06:48:31;;;;;;;21.83;16.65;;;10.90;99.90;;;;;;7371250;19;20017;-72
2023/09/24 06:51:09;;;;;;;18.42;14.98;;;11.20;99.90;;;;;;7372207;19;20547;-73
2023/09/24 06:53:39;;;;;;;16.23;13.48;;;11.50;99.90;;;;;;7368067;19;20024;-62
2023/09/24 06:56:06;;;;;;;18.98;12.82;;;11.80;99.90;;;;;;7368635;19;20489;-61
2023/09/24 06:58:34;;;;;;;16.38;11.88;;;12.10;99.90;;;;;;7369512;19;20023;-62
2023/09/24 07:01:01;;;;;;;14.27;10.65;;;12.40;99.90;;;;;;7369955;19;20022;-62
2023/09/24 07:03:28;;;;;;;13.68;9.73;;;12.60;99.90;;;;;;7375380;19;20086;-72
2023/09/24 07:05:58;;;;;;;12.88;9.82;;;12.80;99.90;;;;;;7374345;19;20018;-73
2023/09/24 07:08:24;;;;;;;13.43;8.80;;;13.00;99.90;;;;;;7371941;19;20010;-71
2023/09/24 07:11:31;;;;;;;10.45;8.20;;;13.10;99.90;;;;;;7375344;19;20047;-72
2023/09/24 07:13:58;;;;;;;14.55;9.32;;;13.20;99.90;;;;;;7372200;19;20495;-61
2023/09/24 07:16:26;;;;;;;11.23;8.23;;;13.30;99.90;;;;;;7379485;19;20018;-71
2023/09/24 07:18:54;;;;;;;11.70;7.72;;;13.50;99.90;;;;;;7368857;19;20025;-72
2023/09/24 07:21:24;;;;;;;11.98;8.02;;;13.60;99.90;;;;;;7371640;19;20014;-64
2023/09/24 07:23:54;;;;;;;12.23;8.40;;;13.80;99.90;;;;;;7374592;19;20022;-72
2023/09/24 07:26:22;;;;;;;11.10;7.45;;;14.00;99.90;;;;;;7376666;19;20041;-60
2023/09/24 07:28:49;;;;;;;12.00;8.23;;;14.20;99.90;;;;;;7364223;19;20019;-60
2023/09/24 07:31:21;;;;;;;11.57;8.07;;;14.50;99.90;;;;;;7371151;19;20616;-60
2023/09/24 07:33:55;;;;;;;12.32;8.05;;;14.80;99.90;;;;;;7370210;19;20032;-60
2023/09/24 07:36:21;;;;;;;8.82;7.18;;;15.20;99.90;;;;;;7373877;19;20018;-61
2023/09/24 07:38:51;;;;;;;13.85;7.85;;;15.70;99.90;;;;;;7369590;19;20426;-61
2023/09/24 07:41:21;;;;;;;12.23;6.90;;;16.00;99.90;;;;;;7373211;19;20504;-61
2023/09/24 07:43:47;;;;;;;11.95;7.60;;;16.50;99.90;;;;;;7364810;19;20489;-61
2023/09/24 07:46:34;;;;;;;10.27;6.68;;;16.90;99.90;;;;;;7369783;19;20021;-61
2023/09/24 07:49:05;;;;;;;9.45;6.32;;;17.20;99.90;;;;;;7369534;19;20014;-60
2023/09/24 07:51:31;;;;;;;10.05;6.38;;;17.40;99.90;;;;;;7372002;19;20049;-60
2023/09/24 07:53:57;;;;;;;9.02;6.45;;;17.90;99.90;;;;;;7371306;19;20018;-61
2023/09/24 07:56:43;;;;;;;9.85;6.30;;;18.40;99.90;;;;;;7365078;19;20025;-70
2023/09/24 07:59:10;;;;;;;7.28;5.80;;;18.40;99.90;;;;;;7371930;19;20026;-73
2023/09/24 08:01:36;;;;;;;7.97;6.13;;;18.70;99.90;;;;;;7367514;19;20022;-72
2023/09/24 08:04:03;;;;;;;7.93;5.88;;;18.90;99.90;;;;;;7372142;19;20485;-72
2023/09/24 08:06:30;;;;;;;8.50;6.10;;;19.30;99.90;;;;;;7370893;19;20661;-72
2023/09/24 08:08:56;;;;;;;11.18;5.75;;;19.20;99.90;;;;;;7369083;19;20642;-72
2023/09/24 08:11:23;;;;;;;9.30;5.50;;;19.00;99.90;;;;;;7375742;19;20043;-70
2023/09/24 08:13:50;;;;;;;9.70;5.47;;;19.00;99.90;;;;;;7370970;19;20436;-71
2023/09/24 08:16:16;;;;;;;10.43;5.70;;;18.90;99.90;;;;;;7372992;19;20058;-72
2023/09/24 08:18:44;;;;;;;9.48;6.07;;;18.90;99.90;;;;;;7369834;19;20025;-72
2023/09/24 08:21:10;;;;;;;11.10;5.47;;;19.00;99.90;;;;;;7367055;19;20023;-72
2023/09/24 08:23:36;;;;;;;8.18;5.35;;;19.40;99.90;;;;;;7370503;19;20014;-72
2023/09/24 08:26:06;;;;;;;12.15;5.93;;;19.60;99.90;;;;;;7373188;19;20091;-73
2023/09/24 08:28:32;;;;;;;8.95;5.63;;;19.70;99.90;;;;;;7375828;19;20021;-72
2023/09/24 08:30:58;;;;;;;7.47;5.95;;;20.10;99.90;;;;;;7373017;19;20463;-72
2023/09/24 08:33:25;;;;;;;10.88;5.82;;;20.10;99.90;;;;;;7369237;19;20035;-72
2023/09/24 08:35:51;;;;;;;8.98;5.70;;;20.40;99.90;;;;;;7370766;19;20366;-71
2023/09/24 08:38:17;;;;;;;9.77;5.43;;;20.70;99.90;;;;;;7372930;19;20014;-72
2023/09/24 08:40:44;;;;;;;8.23;4.97;;;20.80;99.90;;;;;;7363798;19;20494;-71
2023/09/24 08:43:19;;;;;;;12.20;7.90;;;20.80;99.90;;;;;;7371785;19;20829;-66
2023/09/24 08:45:47;;;;;;;11.40;8.45;;;21.40;99.90;;;;;;7364051;19;20022;-69
2023/09/24 08:48:15;;;;;;;8.63;6.03;;;21.70;99.90;;;;;;7362306;19;20018;-68
2023/09/24 08:50:42;;;;;;;11.68;5.10;;;22.10;99.90;;;;;;7362694;19;20099;-69
2023/09/24 08:53:18;;;;;;;12.10;7.85;;;22.70;99.90;;;;;;7368765;19;20544;-68
2023/09/24 08:55:45;;;;;;;14.48;12.13;;;23.30;99.90;;;;;;7367243;19;20018;-69
2023/09/24 08:58:11;;;;;;;10.07;6.72;;;23.40;99.90;;;;;;7366900;19;20023;-69
2023/09/24 09:00:38;;;;;;;15.10;11.25;;;23.40;99.90;;;;;;7365232;19;20026;-69
2023/09/24 09:03:05;;;;;;;16.92;14.02;;;23.40;99.90;;;;;;7370188;19;20030;-71
2023/09/24 09:05:36;;;;;;;8.73;5.00;;;23.40;99.90;;;;;;7374591;19;20026;-74
2023/09/24 09:08:04;;;;;;;10.68;5.97;;;23.30;99.90;;;;;;7373246;19;20037;-71
2023/09/24 09:10:32;;;;;;;13.88;9.50;;;23.70;99.90;;;;;;7369834;19;20106;-71
2023/09/24 09:13:18;;;;;;;8.73;4.95;;;23.90;99.90;;;;;;7363311;19;20021;-70
2023/09/24 09:15:46;;;;;;;13.75;9.50;;;23.80;98.20;;;;;;7364832;19;20022;-70
2023/09/24 09:18:28;;;;;;;8.52;6.22;;;23.70;99.90;;;;;;7370471;19;20014;-70
2023/09/24 09:21:01;;;;;;;6.78;3.72;;;24.50;99.60;;;;;;7367011;19;20391;-71
2023/09/24 09:23:33;;;;;;;8.90;5.28;;;24.40;99.90;;;;;;7366191;19;20022;-70
2023/09/24 09:26:00;;;;;;;8.02;4.20;;;24.40;96.90;;;;;;7368500;19;20015;-69
2023/09/24 09:28:28;;;;;;;8.50;4.53;;;24.70;99.30;;;;;;7368080;19;20470;-68
2023/09/24 09:31:09;;;;;;;6.47;3.65;;;24.80;98.20;;;;;;7364948;19;20022;-68
2023/09/24 09:33:39;;;;;;;;;;;25.10;93.90;;;;;;7363446;19;20479;-68
2023/09/24 09:36:34;;;;;;;9.23;5.00;;;24.60;91.70;;;;;;7369282;19;19911;-67
2023/09/24 09:39:02;;;;;;;7.70;4.25;;;25.10;96.60;;;;;;7372161;19;20010;-68
2023/09/24 09:41:32;;;;;;;7.65;3.67;;;24.60;93.90;;;;;;7365725;19;20006;-68
2023/09/24 09:44:06;;;;;;;7.70;4.13;;;24.80;93.20;;;;;;7366258;19;20622;-67
2023/09/24 09:46:37;;;;;;;;;;;25.10;90.30;;;;;;7369939;19;20390;-68
2023/09/24 09:49:09;;;;;;;6.30;3.30;;;25.40;90.30;;;;;;7369677;19;19922;-68
2023/09/24 09:51:45;;;;;;;5.28;3.00;;;25.50;91.80;;;;;;7364646;19;20476;-68
2023/09/24 09:54:13;;;;;;;9.18;3.78;;;25.70;87.00;;;;;;7369507;19;20093;-69
2023/09/24 09:56:41;;;;;;;8.38;3.80;;;26.00;90.10;;;;;;7365501;19;20640;-68
2023/09/24 09:59:08;;;;;;;7.07;3.38;;;26.00;88.10;;;;;;7370301;19;20026;-71
2023/09/24 10:01:35;;;;;;;7.63;2.70;;;25.90;84.80;;;;;;7364286;19;20412;-67
2023/09/24 10:04:04;;;;;;;7.07;3.38;;;25.60;85.90;;;;;;7368429;19;20066;-68
2023/09/24 10:06:37;;;;;;;5.75;2.70;;;25.30;82.80;;;;;;7369658;19;20022;-68
2023/09/24 10:09:34;;;;;;;8.40;3.60;;;25.00;79.10;;;;;;7366520;19;20480;-68
2023/09/24 10:12:06;;;;;;;6.65;2.60;;;24.80;79.50;;;;;;7363046;19;20018;-71
2023/09/24 10:14:36;;;;;;;7.47;3.10;;;25.10;84.00;;;;;;7370340;19;20057;-71
2023/09/24 10:17:22;;;;;;;5.70;2.63;;;25.20;84.30;;;;;;7367573;19;20495;-70
2023/09/24 10:19:54;;;;;;;6.78;2.75;;;25.60;81.90;;;;;;7367193;19;21327;-70
2023/09/24 10:22:28;;;;;;;6.32;2.95;;;25.60;81.10;;;;;;7369145;19;20018;-71
2023/09/24 10:24:55;;;;;;;7.20;2.92;;;25.60;79.50;;;;;;7366069;19;20014;-70
2023/09/24 10:27:31;;;;;;;7.20;2.83;;;26.10;80.90;;;;;;7366692;19;20015;-68
2023/09/24 10:29:57;;;;;;;6.88;2.60;;;26.40;78.00;;;;;;7367537;19;20394;-68
2023/09/24 10:32:25;;;;;;;6.75;2.60;;;26.80;78.20;;;;;;7365110;19;20019;-70
2023/09/24 10:34:54;;;;;;;4.82;2.20;;;26.30;75.70;;;;;;7365915;19;20477;-67
2023/09/24 10:37:22;;;;;;;11.63;8.02;;;26.80;74.70;;;;;;7362265;19;20041;-67
2023/09/24 10:40:04;;;;;;;6.50;2.30;;;26.50;72.90;;;;;;7367838;19;20022;-67
2023/09/24 10:42:33;;;;;;;4.68;2.00;;;26.30;69.60;;;;;;7370725;19;20049;-67
2023/09/24 10:45:06;;;;;;;9.32;5.80;;;26.30;71.30;;;;;;7376354;19;20413;-67
2023/09/24 10:47:37;;;;;;;5.78;3.25;;;26.60;69.20;;;;;;7372457;19;20023;-66
2023/09/24 10:50:12;;;;;;;6.28;2.38;;;26.70;70.00;;;;;;7376048;19;20034;-67
2023/09/24 10:53:02;;;;;;;5.40;2.92;;;26.70;67.80;;;;;;7373378;19;20025;-67
2023/09/24 10:55:28;;;;;;;7.68;2.55;;;25.90;65.40;;;;;;7375790;19;20691;-68
2023/09/24 10:58:03;;;;;;;16.98;3.90;;;25.80;68.10;;;;;;7374159;19;20900;-68
2023/09/24 11:00:30;;;;;;;7.57;2.60;;;25.60;68.90;;;;;;7369754;19;20022;-67
2023/09/24 11:03:02;;;;;;;7.13;1.88;;;25.60;67.80;;;;;;7372931;19;20057;-68
2023/09/24 11:05:35;;;;;;;7.82;2.25;;;26.30;68.70;;;;;;7373248;19;20063;-67
2023/09/24 11:08:02;;;;;;;6.75;2.05;;;26.00;65.70;;;;;;7374043;19;20031;-62
2023/09/24 11:10:28;;;;;;;4.40;1.52;;;26.20;67.20;;;;;;7372874;19;20019;-62
2023/09/24 11:13:00;;;;;;;5.55;1.55;;;25.70;67.00;;;;;;7370991;19;20524;-62
2023/09/24 11:15:33;;;;;;;6.05;1.48;;;26.30;66.30;;;;;;7372070;19;20471;-62
2023/09/24 11:18:00;;;;;;;5.85;1.65;;;26.00;64.80;;;;;;7374160;19;20366;-61
2023/09/24 11:20:32;;;;;;;4.38;1.55;;;25.80;65.50;;;;;;7369927;19;20031;-62
2023/09/24 11:23:00;;;;;;;4.32;2.03;;;25.80;66.70;;;;;;7369554;19;20022;-61
2023/09/24 11:25:26;;;;;;;5.80;2.40;;;25.80;64.70;;;;;;7375423;19;20023;-62
2023/09/24 11:27:54;;;;;;;4.85;1.88;;;25.80;65.80;;;;;;7371710;19;20913;-62
2023/09/24 11:30:23;;;;;;;17.67;15.75;;;25.90;64.90;;;;;;7371761;19;20811;-61
2023/09/24 11:32:53;;;;;;;7.07;3.97;;;26.50;66.00;;;;;;7374128;19;20745;-62
2023/09/24 11:35:21;;;;;;;10.52;8.75;;;27.00;65.60;;;;;;7373237;19;20018;-62
2023/09/24 11:38:00;;;;;;;10.63;6.63;;;27.20;66.00;;;;;;7372255;19;20510;-61
2023/09/24 11:40:31;;;;;;;10.80;6.28;;;27.70;64.40;;;;;;7370841;19;20481;-62
2023/09/24 11:42:59;;;;;;;18.65;15.20;;;27.40;64.40;;;;;;7370637;19;20551;-62
2023/09/24 11:45:50;;;;;;;19.40;16.52;;;27.60;63.40;;;;;;7376753;19;20019;-62
2023/09/24 11:48:28;;;;;;;9.93;6.68;;;27.30;62.60;;;;;;7373786;19;20118;-62
2023/09/24 11:51:00;;;;;;;6.32;2.83;;;26.30;61.80;;;;;;7377258;19;21156;-62
2023/09/24 11:53:27;;;;;;;6.70;1.77;;;25.90;64.30;;;;;;7375012;19;20026;-62
2023/09/24 11:55:58;;;;;;;10.82;6.93;;;25.50;65.00;;;;;;7369318;19;20053;-62
2023/09/24 11:58:28;;;;;;;9.18;7.22;;;25.60;64.00;;;;;;7374625;19;20200;-62
2023/09/24 12:00:56;;;;;;;4.67;1.93;;;25.30;65.40;;;;;;7368784;19;20268;-62
2023/09/24 12:03:23;;;;;;;13.23;10.98;;;25.90;65.00;;;;;;7371035;19;20033;-62
2023/09/24 12:05:50;;;;;;;6.43;2.40;;;25.10;64.90;;;;;;7371583;19;20025;-61
2023/09/24 12:08:16;;;;;;;7.78;3.63;;;25.30;65.20;;;;;;7373337;19;20529;-62
2023/09/24 12:10:46;;;;;;;8.55;4.00;;;25.50;65.70;;;;;;7370015;19;20026;-62
2023/09/24 12:13:14;;;;;;;6.25;3.60;;;25.80;66.10;;;;;;7370974;19;20035;-62
2023/09/24 12:15:40;;;;;;;6.95;3.60;;;26.10;65.10;;;;;;7370040;19;20386;-62
2023/09/24 12:18:08;;;;;;;6.30;3.75;;;26.90;64.90;;;;;;7372371;19;20026;-61
2023/09/24 12:20:37;;;;;;;5.18;1.77;;;27.00;63.80;;;;;;7371799;19;20022;-62
2023/09/24 12:23:06;;;;;;;5.03;1.73;;;27.50;63.90;;;;;;7372188;19;20561;-61
2023/09/24 12:25:36;;;;;;;4.32;1.58;;;27.80;63.70;;;;;;7373388;19;20018;-61
2023/09/24 12:28:11;;;;;;;6.75;3.83;;;27.70;61.30;;;;;;7372764;19;20025;-61
2023/09/24 12:30:38;;;;;;;5.13;1.67;;;27.60;59.30;;;;;;7370570;19;20376;-61
2023/09/24 12:33:05;;;;;;;6.18;2.47;;;26.40;59.00;;;;;;7367469;19;20014;-61
2023/09/24 12:35:31;;;;;;;3.78;1.25;;;26.00;61.50;;;;;;7370658;19;20397;-62
2023/09/24 12:37:57;;;;;;;5.03;1.63;;;25.90;62.80;;;;;;7368312;19;20031;-61
2023/09/24 12:40:25;;;;;;;5.10;2.17;;;25.20;62.60;;;;;;7371709;19;20030;-60
2023/09/24 12:42:52;;;;;;;5.38;1.65;;;25.00;63.60;;;;;;7364788;19;20031;-61
2023/09/24 12:45:18;;;;;;;4.00;1.40;;;24.60;64.20;;;;;;7371817;19;20022;-61
2023/09/24 12:47:45;;;;;;;5.78;1.55;;;24.20;65.00;;;;;;7368089;19;20018;-63
2023/09/24 12:50:12;;;;;;;4.97;2.03;;;24.00;65.90;;;;;;7371420;19;20722;-60